Time;durP1;ratioP1;P1;durP2;ratioP2;P2;SDS_P1;SDS_P2;PMS_P1;PMS_P2;Temp;Humidity;BMP_temperature;BMP_pressure;BME280_temperature;BME280_humidity;BME280_pressure;Samples;Min_cycle;Max_cycle;Signal;HPM_P1;HPM_P2
2022/01/20 00:00:19;;;;;;;;;;;4.10;99.90;;;;;;5101142;28;19924;-86
2022/01/20 00:02:46;;;;;;;;;;;4.20;99.90;;;;;;5081963;28;19931;-84
2022/01/20 00:05:27;;;;;;;;;;;4.20;99.90;;;;;;5005032;28;19926;-83
2022/01/20 00:08:08;;;;;;;;;;;4.20;99.90;;;;;;4836271;29;19930;-83
2022/01/20 00:27:06;;;;;;;;;;;4.00;99.90;;;;;;4599395;30;19936;-85
2022/01/20 00:33:13;;;;;;;;;;;4.00;99.90;;;;;;5177367;27;19925;-85
2022/01/20 00:38:22;;;;;;;;;;;4.00;99.90;;;;;;5087047;28;19932;-87
2022/01/20 00:40:50;;;;;;;;;;;4.10;99.90;;;;;;5067530;28;19925;-87
2022/01/20 00:43:17;;;;;;;;;;;4.20;99.90;;;;;;4953265;28;19927;-84
2022/01/20 00:45:43;;;;;;;;;;;4.20;99.90;;;;;;4806357;29;19946;-82
2022/01/20 00:48:11;;;;;;;;;;;4.10;99.90;;;;;;4570947;30;19936;-84
2022/01/20 00:55:42;;;;;;;;;;;4.20;99.90;;;;;;5182249;27;19929;-81
2022/01/20 00:58:09;;;;;;;;;;;4.20;99.90;;;;;;5147692;27;19929;-81
2022/01/20 01:00:36;;;;;;;;;;;4.10;99.90;;;;;;5118458;28;19931;-85
2022/01/20 01:03:03;;;;;;;;;;;4.20;99.90;;;;;;5057241;28;19924;-87
2022/01/20 01:05:30;;;;;;;;;;;4.20;99.90;;;;;;5023343;28;19926;-83
2022/01/20 01:07:57;;;;;;;;;;;4.10;99.90;;;;;;4896705;28;19928;-83
2022/01/20 01:10:26;;;;;;;;;;;4.10;99.90;;;;;;4783573;29;19927;-83
2022/01/20 01:23:26;;;;;;;;;;;3.90;99.90;;;;;;5077918;28;19931;-84
2022/01/20 01:25:55;;;;;;;;;;;3.80;99.90;;;;;;5067277;28;19924;-90
2022/01/20 01:28:25;;;;;;;;;;;3.70;99.90;;;;;;4983491;28;19935;-85
2022/01/20 01:31:18;;;;;;;;;;;3.70;99.90;;;;;;4807336;29;19938;-81
2022/01/20 01:33:53;;;;;;;;;;;3.70;99.90;;;;;;4495014;31;19938;-83
2022/01/20 01:41:28;;;;;;;;;;;3.60;99.90;;;;;;5181068;27;19941;-81
2022/01/20 01:43:57;;;;;;;;;;;3.60;99.90;;;;;;5115114;27;19947;-85
2022/01/20 01:46:23;;;;;;;;;;;3.50;99.90;;;;;;5124089;27;19930;-84
2022/01/20 01:48:51;;;;;;;;;;;3.50;99.90;;;;;;5068229;28;19925;-87
2022/01/20 01:51:18;;;;;;;;;;;3.40;99.90;;;;;;5027255;28;19926;-84
2022/01/20 01:53:47;;;;;;;;;;;3.40;99.90;;;;;;4876552;29;19930;-86
2022/01/20 01:56:14;;;;;;;;;;;3.40;99.90;;;;;;4565453;30;19963;-87
2022/01/20 02:04:15;;;;;;;;;;;3.30;99.90;;;;;;5174623;27;19925;-84
2022/01/20 02:07:18;;;;;;;;;;;3.30;99.90;;;;;;5113398;27;19924;-84
2022/01/20 02:18:11;;;;;;;;;;;3.20;99.90;;;;;;4578511;30;19946;-86
2022/01/20 02:23:19;;;;;;;;;;;3.00;99.90;;;;;;5174308;27;19926;-86
2022/01/20 02:25:46;;;;;;;;;;;3.00;99.90;;;;;;5138523;27;19923;-82
2022/01/20 02:28:13;;;;;;;;;;;3.10;99.90;;;;;;5137852;27;19923;-85
2022/01/20 02:30:42;;;;;;;;;;;3.10;99.90;;;;;;5135185;27;19923;-81
2022/01/20 02:33:11;;;;;;;;;;;3.00;99.90;;;;;;5072505;28;19926;-86
2022/01/20 02:35:39;;;;;;;;;;;3.00;99.90;;;;;;4851999;29;19914;-84
2022/01/20 02:38:17;;;;;;;;;;;3.00;99.90;;;;;;4610792;30;19943;-83
2022/01/20 02:46:08;;;;;;;;;;;3.10;99.90;;;;;;5174789;27;19926;-87
2022/01/20 02:48:35;;;;;;;;;;;3.10;99.90;;;;;;5123512;27;19923;-85
2022/01/20 02:51:02;;;;;;;;;;;3.00;99.90;;;;;;5111360;28;19930;-83
2022/01/20 02:53:29;;;;;;;;;;;3.10;99.90;;;;;;5086312;27;19925;-84
2022/01/20 02:55:55;;;;;;;;;;;3.10;99.90;;;;;;5049675;28;19926;-84
2022/01/20 02:58:22;;;;;;;;;;;3.10;99.90;;;;;;4942256;28;19928;-85
2022/01/20 03:00:49;;;;;;;;;;;3.10;99.90;;;;;;4763504;29;19943;-87
2022/01/20 03:07:26;;;;;;;;;;;3.00;99.90;;;;;;5176285;27;19926;-89
2022/01/20 03:09:53;;;;;;;;;;;3.00;99.90;;;;;;5137878;27;19930;-85
2022/01/20 03:12:19;;;;;;;;;;;2.90;99.90;;;;;;5137912;27;19931;-83
2022/01/20 03:14:46;;;;;;;;;;;2.90;99.90;;;;;;5103445;28;19924;-85
2022/01/20 03:17:14;;;;;;;;;;;2.80;99.90;;;;;;4981636;28;19926;-88
2022/01/20 03:19:40;;;;;;;;;;;2.80;99.90;;;;;;4822800;29;19930;-84
2022/01/20 03:22:07;;;;;;;;;;;2.80;99.90;;;;;;4617412;30;19934;-84
2022/01/20 03:29:40;;;;;;;;;;;2.80;99.90;;;;;;5176212;27;19926;-85
2022/01/20 03:32:08;;;;;;;;;;;2.80;99.90;;;;;;5127334;27;19931;-82
2022/01/20 03:34:35;;;;;;;;;;;2.80;99.90;;;;;;5133495;27;19927;-82
2022/01/20 03:37:07;;;;;;;;;;;2.80;99.90;;;;;;5110556;28;19931;-81
2022/01/20 03:39:44;;;;;;;;;;;2.60;99.90;;;;;;5025721;28;19932;-82
2022/01/20 03:42:10;;;;;;;;;;;2.50;99.90;;;;;;4825646;29;19989;-84
2022/01/20 03:44:37;;;;;;;;;;;2.40;99.90;;;;;;4624423;30;19939;-82
2022/01/20 03:52:10;;;;;;;;;;;2.40;99.90;;;;;;5162652;27;19926;-83
2022/01/20 03:54:37;;;;;;;;;;;2.40;99.90;;;;;;5136355;27;19928;-85
2022/01/20 03:57:33;;;;;;;;;;;2.40;99.90;;;;;;5109294;28;19924;-82
2022/01/20 04:00:20;;;;;;;;;;;2.50;99.90;;;;;;5061524;28;19926;-83
2022/01/20 04:02:58;;;;;;;;;;;2.60;99.90;;;;;;5009224;28;19930;-84
2022/01/20 04:05:56;;;;;;;;;;;2.70;99.90;;;;;;4826740;29;19930;-83
2022/01/20 04:08:43;;;;;;;;;;;2.60;99.90;;;;;;4548170;30;19935;-86
2022/01/20 04:16:19;;;;;;;;;;;2.70;99.90;;;;;;5175533;27;19926;-84
2022/01/20 04:18:52;;;;;;;;;;;2.70;99.90;;;;;;5117081;27;19930;-86
2022/01/20 04:21:20;;;;;;;;;;;2.80;99.90;;;;;;5108135;28;19924;-88
2022/01/20 04:23:47;;;;;;;;;;;2.80;99.90;;;;;;5041208;28;19925;-87
2022/01/20 04:26:14;;;;;;;;;;;2.80;99.90;;;;;;4951928;28;19935;-86
2022/01/20 04:28:40;;;;;;;;;;;2.80;99.90;;;;;;4790658;29;19957;-88
2022/01/20 04:31:07;;;;;;;;;;;2.80;99.90;;;;;;4626152;30;19933;-89
2022/01/20 04:38:40;;;;;;;;;;;2.10;99.90;;;;;;5174097;27;19926;-85
2022/01/20 04:41:07;;;;;;;;;;;1.50;99.90;;;;;;5137435;27;19923;-85
2022/01/20 04:43:33;;;;;;;;;;;1.40;99.90;;;;;;5136240;27;19931;-85
2022/01/20 04:46:07;;;;;;;;;;;1.20;99.90;;;;;;5128464;27;19931;-83
2022/01/20 04:48:47;;;;;;;;;;;1.20;99.90;;;;;;5004681;28;19944;-84
2022/01/20 05:02:09;;;;;;;;;;;1.00;99.90;;;;;;5160714;27;19926;-85
2022/01/20 05:04:47;;;;;;;;;;;1.00;99.90;;;;;;5116249;27;19931;-82
2022/01/20 05:07:29;;;;;;;;;;;1.00;99.90;;;;;;5092779;28;19932;-82
2022/01/20 05:09:57;;;;;;;;;;;1.00;99.90;;;;;;5059003;28;19925;-85
2022/01/20 05:12:30;;;;;;;;;;;1.10;99.90;;;;;;4953953;28;19927;-82
2022/01/20 05:14:57;;;;;;;;;;;1.10;99.90;;;;;;4711520;29;19962;-85
2022/01/20 05:17:25;;;;;;;;;;;1.10;99.90;;;;;;4454334;31;19944;-86
2022/01/20 05:25:03;;;;;;;;;;;1.20;99.90;;;;;;5197526;27;19913;-85
2022/01/20 05:27:30;;;;;;;;;;;1.30;99.90;;;;;;5159936;27;19913;-86
2022/01/20 05:29:57;;;;;;;;;;;1.30;99.90;;;;;;5159047;27;19933;-82
2022/01/20 05:32:26;;;;;;;;;;;1.30;99.90;;;;;;5131299;27;19924;-85
2022/01/20 05:34:53;;;;;;;;;;;1.30;99.90;;;;;;5015860;28;19935;-87
2022/01/20 05:37:19;;;;;;;;;;;1.30;99.90;;;;;;4816972;29;19936;-86
2022/01/20 05:39:48;;;;;;;;;;;1.30;99.90;;;;;;4644930;30;19934;-85
2022/01/20 05:47:43;;;;;;;;;;;1.40;99.90;;;;;;5185275;27;19925;-81
2022/01/20 05:50:10;;;;;;;;;;;1.30;99.90;;;;;;5166778;27;19933;-81
2022/01/20 05:52:41;;;;;;;;;;;1.30;99.90;;;;;;5094407;28;19925;-87
2022/01/20 05:55:09;;;;;;;;;;;1.30;99.90;;;;;;5047801;28;19948;-85
2022/01/20 05:57:36;;;;;;;;;;;1.40;99.90;;;;;;4978928;28;19927;-85
2022/01/20 06:00:03;;;;;;;;;;;1.40;99.90;;;;;;4849004;29;19930;-86
2022/01/20 06:10:36;;;;;;;;;;;1.70;99.90;;;;;;5173168;27;19926;-84
2022/01/20 06:13:29;;;;;;;;;;;1.70;99.90;;;;;;5099369;28;19932;-83
2022/01/20 06:15:56;;;;;;;;;;;1.80;99.90;;;;;;5085965;28;19931;-84
2022/01/20 06:18:24;;;;;;;;;;;1.80;99.90;;;;;;5040217;28;19925;-83
2022/01/20 06:20:54;;;;;;;;;;;1.80;99.90;;;;;;4973750;28;19938;-85
2022/01/20 06:23:21;;;;;;;;;;;1.70;99.90;;;;;;4811178;29;19931;-84
2022/01/20 06:25:50;;;;;;;;;;;1.70;99.90;;;;;;4601503;30;19934;-83
2022/01/20 06:33:21;;;;;;;;;;;1.50;99.90;;;;;;5158243;27;19946;-81
2022/01/20 06:35:54;;;;;;;;;;;1.40;99.90;;;;;;5103539;27;19931;-84
2022/01/20 06:38:21;;;;;;;;;;;1.30;99.90;;;;;;5106581;28;19925;-85
2022/01/20 06:40:49;;;;;;;;;;;1.30;99.90;;;;;;5053859;28;19925;-81
2022/01/20 06:43:16;;;;;;;;;;;1.30;99.90;;;;;;4966677;28;19927;-83
2022/01/20 06:45:43;;;;;;;;;;;1.30;99.90;;;;;;4845814;29;19943;-83
2022/01/20 06:48:13;;;;;;;;;;;1.30;99.90;;;;;;4638505;29;19938;-84
2022/01/20 06:56:05;;;;;;;;;;;1.20;99.90;;;;;;5176119;27;19925;-82
2022/01/20 06:58:32;;;;;;;;;;;1.20;99.90;;;;;;5128819;28;19924;-84
2022/01/20 07:00:59;;;;;;;;;;;1.20;99.90;;;;;;5111845;28;19930;-83
2022/01/20 07:03:25;;;;;;;;;;;1.10;99.90;;;;;;5106449;28;19924;-83
2022/01/20 07:05:52;;;;;;;;;;;1.20;99.90;;;;;;5090924;28;19924;-85
2022/01/20 07:08:21;;;;;;;;;;;1.20;99.90;;;;;;4962168;28;19926;-85
2022/01/20 07:10:48;;;;;;;;;;;1.20;99.90;;;;;;4789880;29;19947;-84
2022/01/20 07:13:15;;;;;;;;;;;0.90;99.90;;;;;;4484607;30;19938;-85
2022/01/20 07:18:21;;;;;;;;;;;0.20;99.90;;;;;;5174405;27;19925;-84
2022/01/20 07:20:48;;;;;;;;;;;0.10;99.90;;;;;;5136648;27;19934;-81
2022/01/20 07:23:31;;;;;;;;;;;0.00;99.90;;;;;;5101519;27;19923;-84
2022/01/20 07:26:02;;;;;;;;;;;-0.10;99.90;;;;;;5120420;27;19924;-83
2022/01/20 07:28:29;;;;;;;;;;;-0.10;99.90;;;;;;5041729;28;19934;-83
2022/01/20 07:30:55;;;;;;;;;;;-0.10;99.90;;;;;;4846075;28;19937;-84
2022/01/20 07:33:23;;;;;;;;;;;-0.10;99.90;;;;;;4575637;30;19937;-83
2022/01/20 07:41:00;;;;;;;;;;;0.00;99.90;;;;;;5170113;27;19926;-84
2022/01/20 07:43:27;;;;;;;;;;;0.00;99.90;;;;;;5134775;27;19931;-85
2022/01/20 07:45:54;;;;;;;;;;;0.10;99.90;;;;;;5116471;28;19923;-82
2022/01/20 07:48:47;;;;;;;;;;;0.20;99.90;;;;;;5046516;28;19936;-80
2022/01/20 07:51:16;;;;;;;;;;;0.80;99.90;;;;;;4959765;28;19943;-80
2022/01/20 07:53:44;;;;;;;;;;;1.30;99.90;;;;;;4762221;29;19931;-80
2022/01/20 07:56:13;;;;;;;;;;;1.80;99.90;;;;;;4521688;30;19937;-83
2022/01/20 08:03:46;;;;;;;;;;;2.40;99.90;;;;;;5174507;27;19926;-85
2022/01/20 08:06:18;;;;;;;;;;;2.30;99.90;;;;;;5123072;27;19924;-84
2022/01/20 08:08:46;;;;;;;;;;;2.50;99.90;;;;;;5070348;28;19932;-84
2022/01/20 08:11:36;;;;;;;;;;;3.10;99.90;;;;;;5037478;28;19913;-83
2022/01/20 08:14:13;;;;;;;;;;;3.50;99.90;;;;;;4996939;28;19918;-82
2022/01/20 08:16:40;;;;;;;;;;;3.60;99.90;;;;;;4765154;29;19938;-82
2022/01/20 08:19:10;;;;;;;;;;;3.40;99.90;;;;;;4508464;31;19943;-83
2022/01/20 08:26:38;;;;;;;;;;;4.60;99.90;;;;;;5174914;27;19926;-85
2022/01/20 08:29:05;;;;;;;;;;;5.50;99.90;;;;;;5135001;27;19930;-84
2022/01/20 08:31:32;;;;;;;;;;;4.60;99.90;;;;;;5127476;27;19939;-84
2022/01/20 08:34:06;;;;;;;;;;;3.60;99.90;;;;;;5090304;28;19924;-84
2022/01/20 08:36:55;;;;;;;;;;;2.90;99.90;;;;;;5022309;28;19927;-84
2022/01/20 08:39:42;;;;;;;;;;;2.40;99.90;;;;;;4836093;29;19930;-86
2022/01/20 08:42:09;;;;;;;;;;;2.10;99.90;;;;;;4612529;30;19937;-86
2022/01/20 08:49:41;;;;;;;;;;;4.20;99.90;;;;;;5174571;27;19926;-83
2022/01/20 08:52:08;;;;;;;;;;;5.20;99.90;;;;;;5147514;27;19930;-82
2022/01/20 08:54:45;;;;;;;;;;;5.40;99.90;;;;;;5110733;28;19930;-80
2022/01/20 08:57:17;;;;;;;;;;;5.70;99.90;;;;;;5086601;28;19932;-82
2022/01/20 08:59:44;;;;;;;;;;;5.50;99.90;;;;;;5000273;28;19927;-81
2022/01/20 09:02:12;;;;;;;;;;;5.70;99.90;;;;;;4818700;29;19930;-82
2022/01/20 09:04:39;;;;;;;;;;;6.10;99.90;;;;;;4545176;30;19937;-84
2022/01/20 09:15:28;;;;;;;;;;;6.90;99.90;;;;;;5082987;28;19924;-86
2022/01/20 09:18:01;;;;;;;;;;;6.60;99.90;;;;;;5062538;28;19931;-83
2022/01/20 09:20:28;;;;;;;;;;;5.40;99.90;;;;;;5095697;28;19935;-84
2022/01/20 09:22:58;;;;;;;;;;;4.40;99.90;;;;;;4989400;28;19935;-85
2022/01/20 09:25:25;;;;;;;;;;;3.70;99.90;;;;;;4834634;29;20702;-81
2022/01/20 09:27:55;;;;;;;;;;;3.20;99.90;;;;;;4588253;30;19944;-81
2022/01/20 09:35:29;;;;;;;;;;;2.70;99.90;;;;;;5182450;27;19917;-83
2022/01/20 09:37:57;;;;;;;;;;;2.50;99.90;;;;;;5138599;27;19924;-82
2022/01/20 09:40:24;;;;;;;;;;;2.40;99.90;;;;;;5134917;27;19927;-81
2022/01/20 09:43:00;;;;;;;;;;;2.30;99.90;;;;;;5061390;28;19925;-81
2022/01/20 09:45:27;;;;;;;;;;;2.30;99.90;;;;;;4988672;28;19927;-85
2022/01/20 09:47:54;;;;;;;;;;;2.20;99.90;;;;;;4828263;29;19937;-82
2022/01/20 09:50:46;;;;;;;;;;;2.20;99.90;;;;;;4649226;29;19941;-81
2022/01/20 09:56:12;;;;;;;;;;;2.20;99.90;;;;;;5206473;27;19925;-80
2022/01/20 09:58:39;;;;;;;;;;;2.30;99.90;;;;;;5141317;27;19930;-84
2022/01/20 10:01:06;;;;;;;;;;;2.30;99.90;;;;;;5124387;27;19925;-82
2022/01/20 10:03:35;;;;;;;;;;;2.30;99.90;;;;;;5086634;28;19935;-84
2022/01/20 10:06:02;;;;;;;;;;;2.20;99.90;;;;;;5006126;28;19930;-83
2022/01/20 10:08:35;;;;;;;;;;;2.20;99.90;;;;;;4819411;29;19938;-84
2022/01/20 10:11:33;;;;;;;;;;;2.30;99.90;;;;;;4543574;30;19936;-83
2022/01/20 10:18:22;;;;;;;;;;;2.50;99.90;;;;;;5176989;27;19926;-82
2022/01/20 10:21:05;;;;;;;;;;;2.60;99.90;;;;;;5128094;28;19923;-83
2022/01/20 10:24:05;;;;;;;;;;;2.50;99.90;;;;;;5038930;28;19933;-85
2022/01/20 10:26:40;;;;;;;;;;;2.50;99.90;;;;;;5010735;28;19926;-83
2022/01/20 10:29:08;;;;;;;;;;;3.00;99.90;;;;;;4875635;29;19928;-84
2022/01/20 10:31:37;;;;;;;;;;;3.50;99.90;;;;;;4669701;29;19940;-87
2022/01/20 10:34:06;;;;;;;;;;;3.40;99.90;;;;;;4312179;31;19950;-83
2022/01/20 10:41:04;;;;;;;;;;;5.60;99.90;;;;;;5168978;27;19925;-87
2022/01/20 10:43:35;;;;;;;;;;;5.20;99.90;;;;;;5094864;28;19924;-84
2022/01/20 10:46:20;;;;;;;;;;;4.60;99.90;;;;;;5045128;28;19933;-82
2022/01/20 10:48:57;;;;;;;;;;;3.70;99.90;;;;;;5001971;28;19933;-85
2022/01/20 10:51:24;;;;;;;;;;;3.90;99.90;;;;;;4898645;29;19928;-84
2022/01/20 10:53:58;;;;;;;;;;;3.90;99.90;;;;;;4700903;29;19932;-85
2022/01/20 10:56:26;;;;;;;;;;;3.60;99.90;;;;;;4507952;31;19937;-83
2022/01/20 11:03:01;;;;;;;;;;;3.20;99.90;;;;;;5196188;27;19925;-81
2022/01/20 11:05:30;;;;;;;;;;;4.80;99.90;;;;;;5152312;27;20029;-82
2022/01/20 11:07:59;;;;;;;;;;;5.20;99.90;;;;;;5109360;28;19925;-83
2022/01/20 11:10:26;;;;;;;;;;;5.20;99.90;;;;;;5003112;28;19933;-82
2022/01/20 11:13:10;;;;;;;;;;;5.40;99.90;;;;;;4846096;29;19930;-82
2022/01/20 11:15:40;;;;;;;;;;;5.00;99.90;;;;;;4641697;30;19940;-84
2022/01/20 11:18:09;;;;;;;;;;;4.60;99.90;;;;;;4450190;31;19947;-87
2022/01/20 11:25:43;;;;;;;;;;;5.20;99.90;;;;;;5181950;27;19926;-81
2022/01/20 11:28:20;;;;;;;;;;;5.00;99.90;;;;;;5112321;27;19931;-80
2022/01/20 11:31:00;;;;;;;;;;;5.00;99.90;;;;;;5122411;27;19923;-82
2022/01/20 11:33:58;;;;;;;;;;;5.00;99.90;;;;;;5080836;28;19930;-85
2022/01/20 11:36:26;;;;;;;;;;;4.70;99.90;;;;;;5000395;28;19927;-82
2022/01/20 11:38:59;;;;;;;;;;;4.40;99.90;;;;;;4786146;29;19932;-81
2022/01/20 11:41:33;;;;;;;;;;;4.80;99.90;;;;;;4515118;30;19946;-83
2022/01/20 11:49:06;;;;;;;;;;;5.40;99.90;;;;;;5174701;27;19925;-82
2022/01/20 11:51:41;;;;;;;;;;;5.00;99.90;;;;;;5118202;27;19924;-81
2022/01/20 11:54:09;;;;;;;;;;;4.60;99.90;;;;;;5111020;27;19998;-83
2022/01/20 11:56:37;;;;;;;;;;;4.90;99.90;;;;;;5094195;28;19932;-83
2022/01/20 11:59:04;;;;;;;;;;;4.90;99.90;;;;;;4913321;28;19929;-80
2022/01/20 12:01:42;;;;;;;;;;;4.70;99.90;;;;;;4716015;29;19932;-86
2022/01/20 12:04:09;;;;;;;;;;;4.40;99.90;;;;;;4352568;31;19941;-83
2022/01/20 12:11:17;;;;;;;;;;;4.20;99.90;;;;;;5169140;27;19942;-82
2022/01/20 12:13:50;;;;;;;;;;;4.10;99.90;;;;;;5119826;27;19927;-84
2022/01/20 12:16:18;;;;;;;;;;;3.90;99.90;;;;;;5120666;27;19923;-81
2022/01/20 12:18:49;;;;;;;;;;;3.90;99.90;;;;;;5092007;28;19931;-83
2022/01/20 12:21:16;;;;;;;;;;;4.00;99.90;;;;;;5022499;28;19934;-83
2022/01/20 12:23:42;;;;;;;;;;;4.10;99.90;;;;;;4854878;29;19929;-82
2022/01/20 12:26:09;;;;;;;;;;;4.20;99.90;;;;;;4615338;30;19945;-84
2022/01/20 12:33:02;;;;;;;;;;;4.30;99.90;;;;;;5170941;27;19925;-87
2022/01/20 12:35:41;;;;;;;;;;;4.30;99.90;;;;;;5090051;28;19939;-85
2022/01/20 12:38:15;;;;;;;;;;;4.40;99.90;;;;;;5057262;28;19932;-86
2022/01/20 12:40:43;;;;;;;;;;;4.50;99.90;;;;;;5048747;28;19926;-87
2022/01/20 12:43:10;;;;;;;;;;;4.50;99.90;;;;;;4878653;29;19941;-87
2022/01/20 12:45:57;;;;;;;;;;;4.50;99.90;;;;;;4646781;30;19959;-84
2022/01/20 12:48:25;;;;;;;;;;;4.50;99.90;;;;;;4315824;32;19956;-84
2022/01/20 12:55:58;;;;;;;;;;;4.20;99.90;;;;;;5166300;27;19926;-82
2022/01/20 12:58:25;;;;;;;;;;;4.10;99.90;;;;;;5074952;28;19924;-85
2022/01/20 13:00:58;;;;;;;;;;;4.10;99.90;;;;;;5069223;28;19939;-83
2022/01/20 13:03:35;;;;;;;;;;;4.10;99.90;;;;;;5028683;28;19926;-86
2022/01/20 13:06:02;;;;;;;;;;;4.10;99.90;;;;;;4952774;28;19927;-83
2022/01/20 13:08:33;;;;;;;;;;;4.10;99.90;;;;;;4723487;29;19939;-86
2022/01/20 13:13:57;;;;;;;;;;;4.20;99.90;;;;;;5158015;27;19927;-82
2022/01/20 13:16:24;;;;;;;;;;;4.20;99.90;;;;;;5051891;28;19925;-84
2022/01/20 13:18:53;;;;;;;;;;;4.10;99.90;;;;;;5081218;28;19925;-82
2022/01/20 13:21:20;;;;;;;;;;;4.00;99.90;;;;;;5006630;28;19926;-81
2022/01/20 13:23:55;;;;;;;;;;;4.10;99.90;;;;;;4961449;28;19929;-82
2022/01/20 13:26:22;;;;;;;;;;;4.10;99.90;;;;;;4686136;29;19965;-82
2022/01/20 13:28:58;;;;;;;;;;;4.10;99.90;;;;;;4411290;31;19939;-84
2022/01/20 13:36:42;;;;;;;;;;;3.80;99.90;;;;;;5174357;27;19926;-84
2022/01/20 13:39:14;;;;;;;;;;;3.60;99.90;;;;;;5109979;27;19923;-86
2022/01/20 13:41:42;;;;;;;;;;;3.40;99.90;;;;;;5079435;28;19931;-81
2022/01/20 13:47:02;;;;;;;;;;;3.30;99.90;;;;;;4992772;28;19926;-81
2022/01/20 13:49:29;;;;;;;;;;;3.20;99.90;;;;;;4851696;28;19918;-81
2022/01/20 13:52:04;;;;;;;;;;;3.20;99.90;;;;;;4602440;30;19946;-85
2022/01/20 13:54:38;;;;;;;;;;;3.10;99.90;;;;;;4433013;31;19946;-82
2022/01/20 14:02:12;;;;;;;;;;;2.80;99.90;;;;;;5174358;27;19926;-81
2022/01/20 14:04:38;;;;;;;;;;;2.70;99.90;;;;;;5126837;27;19923;-87
2022/01/20 14:07:06;;;;;;;;;;;2.70;99.90;;;;;;5117838;27;19938;-82
2022/01/20 14:09:33;;;;;;;;;;;2.60;99.90;;;;;;5116405;27;19923;-80
2022/01/20 14:12:00;;;;;;;;;;;2.70;99.90;;;;;;5083804;28;19929;-82
2022/01/20 14:14:26;;;;;;;;;;;2.60;99.90;;;;;;4951534;28;19933;-81
2022/01/20 14:16:53;;;;;;;;;;;2.50;99.90;;;;;;4816555;28;19931;-82
2022/01/20 14:23:54;;;;;;;;;;;2.50;99.90;;;;;;5174349;27;19925;-83
2022/01/20 14:26:28;;;;;;;;;;;2.60;99.90;;;;;;5137917;27;19929;-84
2022/01/20 14:28:55;;;;;;;;;;;2.60;99.90;;;;;;5107053;28;19924;-84
2022/01/20 14:31:21;;;;;;;;;;;2.70;99.90;;;;;;5071589;28;19932;-84
2022/01/20 14:33:48;;;;;;;;;;;2.80;99.90;;;;;;4980261;28;19927;-84
2022/01/20 14:36:15;;;;;;;;;;;2.90;99.90;;;;;;4778318;29;19933;-81
2022/01/20 14:38:42;;;;;;;;;;;3.00;99.90;;;;;;4523309;30;19959;-82
2022/01/20 14:46:13;;;;;;;;;;;2.60;99.90;;;;;;5179511;27;19925;-81
2022/01/20 14:48:40;;;;;;;;;;;2.40;99.90;;;;;;5136845;27;19923;-82
2022/01/20 14:51:08;;;;;;;;;;;2.20;99.90;;;;;;5110968;28;19946;-82
2022/01/20 14:53:35;;;;;;;;;;;2.00;99.90;;;;;;5082147;28;19924;-84
2022/01/20 14:56:03;;;;;;;;;;;1.90;99.90;;;;;;4980680;28;19927;-83
2022/01/20 14:58:29;;;;;;;;;;;1.90;99.90;;;;;;4864803;29;19937;-83
2022/01/20 15:00:56;;;;;;;;;;;1.80;99.90;;;;;;4642629;30;19934;-83
2022/01/20 15:08:33;;;;;;;;;;;1.70;99.90;;;;;;5173290;27;19930;-81
2022/01/20 15:11:00;;;;;;;;;;;1.80;99.90;;;;;;5099789;27;19934;-84
2022/01/20 15:13:27;;;;;;;;;;;1.70;99.90;;;;;;5126065;27;19918;-83
2022/01/20 15:15:54;;;;;;;;;;;1.70;99.90;;;;;;5135128;27;19924;-81
2022/01/20 15:18:21;;;;;;;;;;;1.70;99.90;;;;;;5106134;28;19927;-83
2022/01/20 15:20:47;;;;;;;;;;;1.70;99.90;;;;;;4946150;28;19927;-83
2022/01/20 15:23:14;;;;;;;;;;;1.70;99.90;;;;;;4747118;29;19931;-80
2022/01/20 15:30:44;;;;;;;;;;;1.60;99.90;;;;;;5151094;27;19925;-84
2022/01/20 15:33:11;;;;;;;;;;;1.60;99.90;;;;;;5093666;28;19924;-84
2022/01/20 15:35:38;;;;;;;;;;;1.60;99.90;;;;;;5096720;28;19928;-82
2022/01/20 15:38:05;;;;;;;;;;;1.70;99.90;;;;;;5096251;28;19924;-85
2022/01/20 15:40:32;;;;;;;;;;;1.60;99.90;;;;;;5073422;28;19933;-86
2022/01/20 15:42:59;;;;;;;;;;;1.50;99.90;;;;;;4905947;28;19936;-84
2022/01/20 15:45:25;;;;;;;;;;;1.40;99.90;;;;;;4720210;29;19933;-82
2022/01/20 15:47:52;;;;;;;;;;;1.20;99.90;;;;;;4412132;31;21461;-81
2022/01/20 15:55:12;;;;;;;;;;;1.00;99.90;;;;;;5196139;27;19937;-84
2022/01/20 15:57:39;;;;;;;;;;;0.90;99.90;;;;;;5158174;27;19928;-79
2022/01/20 16:00:08;;;;;;;;;;;0.80;99.90;;;;;;5127247;27;19924;-82
2022/01/20 16:02:34;;;;;;;;;;;0.90;99.90;;;;;;5089139;28;19928;-81
2022/01/20 16:05:01;;;;;;;;;;;0.90;99.90;;;;;;4992507;28;19931;-82
2022/01/20 16:07:28;;;;;;;;;;;0.90;99.90;;;;;;4835648;29;19937;-80
2022/01/20 16:09:54;;;;;;;;;;;0.80;99.90;;;;;;4599436;30;19935;-82
2022/01/20 16:15:02;;;;;;;;;;;0.70;99.90;;;;;;5175522;27;19926;-83
2022/01/20 16:17:31;;;;;;;;;;;0.50;99.90;;;;;;5138407;27;19925;-84
2022/01/20 16:19:57;;;;;;;;;;;0.30;99.90;;;;;;5104152;28;19947;-85
2022/01/20 16:22:24;;;;;;;;;;;0.20;99.90;;;;;;5076727;28;19931;-82
2022/01/20 16:24:51;;;;;;;;;;;0.20;99.90;;;;;;5005664;28;19927;-82
2022/01/20 16:27:17;;;;;;;;;;;0.20;99.90;;;;;;4875395;29;19930;-84
2022/01/20 16:29:44;;;;;;;;;;;0.10;99.90;;;;;;4667051;30;19940;-82
2022/01/20 16:37:18;;;;;;;;;;;0.00;99.90;;;;;;5179570;27;19926;-83
2022/01/20 16:39:46;;;;;;;;;;;-0.10;99.90;;;;;;5152556;27;19907;-85
2022/01/20 16:42:12;;;;;;;;;;;0.00;99.90;;;;;;5119172;28;19912;-86
2022/01/20 16:44:39;;;;;;;;;;;-0.10;99.90;;;;;;5072686;28;19910;-87
2022/01/20 16:47:06;;;;;;;;;;;-0.10;99.90;;;;;;4982116;28;19940;-82
2022/01/20 16:49:34;;;;;;;;;;;0.00;99.90;;;;;;4758722;29;19933;-89
2022/01/20 16:52:01;;;;;;;;;;;0.00;99.90;;;;;;4472424;31;19948;-86
2022/01/20 16:59:34;;;;;;;;;;;0.10;99.90;;;;;;5176710;27;19941;-85
2022/01/20 17:02:02;;;;;;;;;;;0.00;99.90;;;;;;5125794;27;19943;-87
2022/01/20 17:04:29;;;;;;;;;;;0.10;99.90;;;;;;5115244;27;19924;-86
2022/01/20 17:06:55;;;;;;;;;;;0.00;99.90;;;;;;5087683;27;19923;-85
2022/01/20 17:09:22;;;;;;;;;;;0.00;99.90;;;;;;5050850;28;19953;-84
2022/01/20 17:11:49;;;;;;;;;;;0.00;99.90;;;;;;4874538;28;19930;-81
2022/01/20 17:14:16;;;;;;;;;;;0.00;99.90;;;;;;4652219;30;19941;-83
2022/01/20 17:21:48;;;;;;;;;;;-0.10;99.90;;;;;;5169528;27;19926;-84
2022/01/20 17:24:16;;;;;;;;;;;-0.10;99.90;;;;;;5112047;27;19930;-82
2022/01/20 17:26:44;;;;;;;;;;;-0.10;99.90;;;;;;5112262;28;19936;-81
2022/01/20 17:29:11;;;;;;;;;;;0.00;99.90;;;;;;5091591;28;19932;-81
2022/01/20 17:31:39;;;;;;;;;;;0.00;99.90;;;;;;5007270;28;19942;-82
2022/01/20 17:34:06;;;;;;;;;;;0.10;99.90;;;;;;4807957;29;19939;-81
2022/01/20 17:36:33;;;;;;;;;;;0.20;99.90;;;;;;4473580;30;19938;-83
2022/01/20 17:43:18;;;;;;;;;;;0.30;99.90;;;;;;5179150;27;19925;-85
2022/01/20 17:45:45;;;;;;;;;;;0.40;99.90;;;;;;5104234;27;19931;-84
2022/01/20 17:48:11;;;;;;;;;;;0.40;99.90;;;;;;5120316;27;19923;-85
2022/01/20 17:50:38;;;;;;;;;;;0.40;99.90;;;;;;5114185;28;19923;-82
2022/01/20 17:53:04;;;;;;;;;;;0.50;99.90;;;;;;5015132;28;19927;-83
2022/01/20 17:55:31;;;;;;;;;;;0.40;99.90;;;;;;4903462;29;19928;-86
2022/01/20 17:57:59;;;;;;;;;;;0.50;99.90;;;;;;4633499;29;19935;-84
2022/01/20 18:05:14;;;;;;;;;;;0.50;99.90;;;;;;5195907;27;19971;-79
2022/01/20 18:07:41;;;;;;;;;;;0.60;99.90;;;;;;5136666;27;19924;-80
2022/01/20 18:10:09;;;;;;;;;;;0.60;99.90;;;;;;5120470;27;19924;-83
2022/01/20 18:12:36;;;;;;;;;;;0.60;99.90;;;;;;5094078;28;19955;-83
2022/01/20 18:15:04;;;;;;;;;;;0.50;99.90;;;;;;5052038;28;19926;-83
2022/01/20 18:17:31;;;;;;;;;;;0.50;99.90;;;;;;4885439;28;19939;-84
2022/01/20 18:19:58;;;;;;;;;;;0.40;99.90;;;;;;4537171;30;19945;-82
2022/01/20 18:27:25;;;;;;;;;;;0.00;99.90;;;;;;5180136;27;19929;-84
2022/01/20 18:29:51;;;;;;;;;;;-0.10;99.90;;;;;;5116535;27;19930;-84
2022/01/20 18:32:23;;;;;;;;;;;-0.20;99.90;;;;;;5089857;28;19932;-81
2022/01/20 18:34:50;;;;;;;;;;;-0.30;99.90;;;;;;5063754;28;19924;-83
2022/01/20 18:37:17;;;;;;;;;;;-0.30;99.90;;;;;;4988378;28;19927;-83
2022/01/20 18:39:43;;;;;;;;;;;-0.30;99.90;;;;;;4852127;29;19936;-84
2022/01/20 18:42:10;;;;;;;;;;;-0.30;99.90;;;;;;4648978;30;19933;-83
2022/01/20 18:49:37;;;;;;;;;;;-0.30;99.90;;;;;;5175886;27;19926;-83
2022/01/20 18:52:04;;;;;;;;;;;-0.30;99.90;;;;;;5126679;27;19929;-82
2022/01/20 18:54:30;;;;;;;;;;;-0.30;99.90;;;;;;5122016;27;19938;-86
2022/01/20 18:56:57;;;;;;;;;;;-0.30;99.90;;;;;;5096757;28;19957;-85
2022/01/20 18:59:24;;;;;;;;;;;-0.30;99.90;;;;;;5022059;28;19927;-82
2022/01/20 19:01:50;;;;;;;;;;;-0.30;99.90;;;;;;4832208;29;19930;-83
2022/01/20 19:04:17;;;;;;;;;;;-0.20;99.90;;;;;;4655156;30;19949;-82
2022/01/20 19:10:53;;;;;;;;;;;-0.20;99.90;;;;;;5151948;27;19927;-83
2022/01/20 19:13:20;;;;;;;;;;;-0.30;99.90;;;;;;5093879;28;19935;-82
2022/01/20 19:15:47;;;;;;;;;;;-0.20;99.90;;;;;;5094246;28;19924;-82
2022/01/20 19:18:14;;;;;;;;;;;-0.20;99.90;;;;;;5038562;28;19936;-83
2022/01/20 19:20:41;;;;;;;;;;;-0.20;99.90;;;;;;4934019;28;19928;-88
2022/01/20 19:23:07;;;;;;;;;;;-0.30;99.90;;;;;;4777991;29;19932;-86
2022/01/20 19:25:34;;;;;;;;;;;-0.30;99.90;;;;;;4603867;30;19934;-87
2022/01/20 19:33:10;;;;;;;;;;;-0.50;99.90;;;;;;5196429;27;19921;-86
2022/01/20 19:35:38;;;;;;;;;;;-0.50;99.90;;;;;;5167339;27;19923;-87